Search for airport 
image banner adimage banner adimage banner ad
image banner ad

30PN - Pittsburgh Children's Hospital

Located in Pittsburgh, United States

ICAO - 30PN, IATA -

Data provided by Airmate  

General information

Coordinates: N40°27'60" W79°57'10"
Elevation is 1088 feet MSL.
Magnetic variation is -09° East
View others Airports in Pennsylvania

Operational data

Special qualification required
Current time UTC:
Current local time:
Weather at : KAGC - Allegheny County ( 13 km )
METAR: KAGC 270353Z 35004KT 10SM CLR 22/14 A3004 RMK AO2 SLP166 T02170144
TAF: KAGC 262320Z 2700/2724 34006KT P6SM SKC FM271800 30006KT P6SM SKC
View NOTAMs / SUP AIP / TFR affecting this airport [VIEW]
Communications frequencies: [VIEW]

Runways:

Airport contact information

Address: Pittsburgh United States

Satellite view of 30PN